sensor_id;sensor_type;location;lat;lon;timestamp;P1;durP1;ratioP1;P2;durP2;ratioP2
23561;SDS011;11959;49.418;8.728;2023-07-20T00:01:45;3.65;;;1.80;;
23561;SDS011;11959;49.418;8.728;2023-07-20T00:04:12;3.47;;;1.77;;
23561;SDS011;11959;49.418;8.728;2023-07-20T00:06:38;3.90;;;2.05;;
23561;SDS011;11959;49.418;8.728;2023-07-20T00:09:05;5.65;;;1.90;;
23561;SDS011;11959;49.418;8.728;2023-07-20T00:11:31;3.38;;;1.73;;
23561;SDS011;11959;49.418;8.728;2023-07-20T00:14:00;3.65;;;1.90;;
23561;SDS011;11959;49.418;8.728;2023-07-20T00:16:26;3.40;;;1.80;;
23561;SDS011;11959;49.418;8.728;2023-07-20T00:18:51;3.55;;;1.80;;
23561;SDS011;11959;49.418;8.728;2023-07-20T00:21:17;3.25;;;1.55;;
23561;SDS011;11959;49.418;8.728;2023-07-20T00:23:43;4.20;;;2.30;;
23561;SDS011;11959;49.418;8.728;2023-07-20T00:26:08;3.20;;;1.83;;
23561;SDS011;11959;49.418;8.728;2023-07-20T00:28:34;2.80;;;1.70;;
23561;SDS011;11959;49.418;8.728;2023-07-20T00:31:00;2.85;;;1.77;;
23561;SDS011;11959;49.418;8.728;2023-07-20T00:33:26;4.13;;;1.98;;
23561;SDS011;11959;49.418;8.728;2023-07-20T00:35:51;3.95;;;1.83;;
23561;SDS011;11959;49.418;8.728;2023-07-20T00:38:17;3.33;;;1.80;;
23561;SDS011;11959;49.418;8.728;2023-07-20T00:40:43;4.18;;;2.00;;
23561;SDS011;11959;49.418;8.728;2023-07-20T00:43:09;3.72;;;1.80;;
23561;SDS011;11959;49.418;8.728;2023-07-20T00:45:34;4.43;;;2.08;;
23561;SDS011;11959;49.418;8.728;2023-07-20T00:48:02;3.63;;;1.80;;
23561;SDS011;11959;49.418;8.728;2023-07-20T00:50:29;4.88;;;1.80;;
23561;SDS011;11959;49.418;8.728;2023-07-20T00:52:56;5.35;;;2.15;;
23561;SDS011;11959;49.418;8.728;2023-07-20T00:55:22;3.97;;;2.13;;
23561;SDS011;11959;49.418;8.728;2023-07-20T00:57:50;3.38;;;1.80;;
23561;SDS011;11959;49.418;8.728;2023-07-20T01:00:16;3.13;;;2.10;;
23561;SDS011;11959;49.418;8.728;2023-07-20T01:02:42;3.67;;;1.83;;
23561;SDS011;11959;49.418;8.728;2023-07-20T01:05:08;2.92;;;1.70;;
23561;SDS011;11959;49.418;8.728;2023-07-20T01:07:50;3.88;;;1.90;;
23561;SDS011;11959;49.418;8.728;2023-07-20T01:10:34;5.18;;;2.17;;
23561;SDS011;11959;49.418;8.728;2023-07-20T01:13:06;3.90;;;1.92;;
23561;SDS011;11959;49.418;8.728;2023-07-20T01:15:34;3.53;;;1.92;;
23561;SDS011;11959;49.418;8.728;2023-07-20T01:18:00;3.08;;;2.17;;
23561;SDS011;11959;49.418;8.728;2023-07-20T01:20:26;3.95;;;2.20;;
23561;SDS011;11959;49.418;8.728;2023-07-20T01:28:49;4.15;;;1.75;;
23561;SDS011;11959;49.418;8.728;2023-07-20T01:31:26;4.28;;;2.10;;
23561;SDS011;11959;49.418;8.728;2023-07-20T01:34:02;4.10;;;1.80;;
23561;SDS011;11959;49.418;8.728;2023-07-20T01:36:32;3.35;;;1.83;;
23561;SDS011;11959;49.418;8.728;2023-07-20T01:39:00;3.70;;;1.65;;
23561;SDS011;11959;49.418;8.728;2023-07-20T01:41:27;3.42;;;2.28;;
23561;SDS011;11959;49.418;8.728;2023-07-20T01:43:53;4.35;;;2.13;;
23561;SDS011;11959;49.418;8.728;2023-07-20T01:46:22;4.05;;;1.85;;
23561;SDS011;11959;49.418;8.728;2023-07-20T01:48:47;3.42;;;2.10;;
23561;SDS011;11959;49.418;8.728;2023-07-20T01:51:13;4.57;;;2.00;;
23561;SDS011;11959;49.418;8.728;2023-07-20T01:53:39;3.97;;;2.20;;
23561;SDS011;11959;49.418;8.728;2023-07-20T01:56:04;4.03;;;1.90;;
23561;SDS011;11959;49.418;8.728;2023-07-20T01:58:30;4.53;;;2.20;;
23561;SDS011;11959;49.418;8.728;2023-07-20T02:00:56;4.18;;;1.98;;
23561;SDS011;11959;49.418;8.728;2023-07-20T02:03:21;2.78;;;1.80;;
23561;SDS011;11959;49.418;8.728;2023-07-20T02:05:48;4.43;;;1.90;;
23561;SDS011;11959;49.418;8.728;2023-07-20T02:08:15;2.97;;;1.90;;
23561;SDS011;11959;49.418;8.728;2023-07-20T02:10:41;4.50;;;2.10;;
23561;SDS011;11959;49.418;8.728;2023-07-20T02:13:07;4.07;;;1.70;;
23561;SDS011;11959;49.418;8.728;2023-07-20T02:15:32;4.35;;;2.00;;
23561;SDS011;11959;49.418;8.728;2023-07-20T02:17:58;4.95;;;1.90;;
23561;SDS011;11959;49.418;8.728;2023-07-20T02:20:24;3.97;;;2.20;;
23561;SDS011;11959;49.418;8.728;2023-07-20T02:22:49;3.95;;;1.98;;
23561;SDS011;11959;49.418;8.728;2023-07-20T02:25:15;3.90;;;1.70;;
23561;SDS011;11959;49.418;8.728;2023-07-20T02:27:41;3.70;;;1.77;;
23561;SDS011;11959;49.418;8.728;2023-07-20T02:30:07;3.28;;;1.88;;
23561;SDS011;11959;49.418;8.728;2023-07-20T02:32:34;4.57;;;2.00;;
23561;SDS011;11959;49.418;8.728;2023-07-20T02:35:00;3.45;;;1.98;;
23561;SDS011;11959;49.418;8.728;2023-07-20T02:37:25;3.50;;;1.95;;
23561;SDS011;11959;49.418;8.728;2023-07-20T02:39:51;3.63;;;1.85;;
23561;SDS011;11959;49.418;8.728;2023-07-20T02:42:17;3.90;;;2.10;;
23561;SDS011;11959;49.418;8.728;2023-07-20T02:44:42;3.42;;;2.08;;
23561;SDS011;11959;49.418;8.728;2023-07-20T02:47:08;3.72;;;2.15;;
23561;SDS011;11959;49.418;8.728;2023-07-20T02:49:34;3.53;;;1.80;;
23561;SDS011;11959;49.418;8.728;2023-07-20T02:52:00;3.92;;;2.03;;
23561;SDS011;11959;49.418;8.728;2023-07-20T02:54:25;4.07;;;2.10;;
23561;SDS011;11959;49.418;8.728;2023-07-20T02:56:51;4.20;;;2.22;;
23561;SDS011;11959;49.418;8.728;2023-07-20T02:59:17;3.47;;;1.90;;
23561;SDS011;11959;49.418;8.728;2023-07-20T03:01:42;4.50;;;1.98;;
23561;SDS011;11959;49.418;8.728;2023-07-20T03:04:08;3.88;;;2.30;;
23561;SDS011;11959;49.418;8.728;2023-07-20T03:06:35;3.95;;;1.70;;
23561;SDS011;11959;49.418;8.728;2023-07-20T03:09:01;3.30;;;1.90;;
23561;SDS011;11959;49.418;8.728;2023-07-20T03:11:28;3.30;;;1.90;;
23561;SDS011;11959;49.418;8.728;2023-07-20T03:13:54;4.45;;;2.40;;
23561;SDS011;11959;49.418;8.728;2023-07-20T03:16:20;3.05;;;1.90;;
23561;SDS011;11959;49.418;8.728;2023-07-20T03:18:47;3.10;;;2.15;;
23561;SDS011;11959;49.418;8.728;2023-07-20T03:21:12;3.20;;;2.13;;
23561;SDS011;11959;49.418;8.728;2023-07-20T03:23:41;3.28;;;2.10;;
23561;SDS011;11959;49.418;8.728;2023-07-20T03:26:07;4.20;;;2.40;;
23561;SDS011;11959;49.418;8.728;2023-07-20T03:28:34;5.13;;;2.50;;
23561;SDS011;11959;49.418;8.728;2023-07-20T03:31:00;3.80;;;2.08;;
23561;SDS011;11959;49.418;8.728;2023-07-20T03:33:26;4.78;;;2.42;;
23561;SDS011;11959;49.418;8.728;2023-07-20T03:35:53;3.50;;;2.28;;
23561;SDS011;11959;49.418;8.728;2023-07-20T03:38:19;5.05;;;2.63;;
23561;SDS011;11959;49.418;8.728;2023-07-20T03:40:49;3.85;;;2.28;;
23561;SDS011;11959;49.418;8.728;2023-07-20T03:43:22;3.83;;;2.05;;
23561;SDS011;11959;49.418;8.728;2023-07-20T03:45:49;3.97;;;2.30;;
23561;SDS011;11959;49.418;8.728;2023-07-20T03:48:15;3.30;;;1.90;;
23561;SDS011;11959;49.418;8.728;2023-07-20T03:50:41;4.68;;;2.30;;
23561;SDS011;11959;49.418;8.728;2023-07-20T03:53:09;2.97;;;1.92;;
23561;SDS011;11959;49.418;8.728;2023-07-20T03:55:34;3.25;;;2.15;;
23561;SDS011;11959;49.418;8.728;2023-07-20T03:58:00;3.78;;;2.20;;
23561;SDS011;11959;49.418;8.728;2023-07-20T04:00:26;4.22;;;2.42;;
23561;SDS011;11959;49.418;8.728;2023-07-20T04:02:52;3.65;;;2.10;;
23561;SDS011;11959;49.418;8.728;2023-07-20T04:05:18;3.95;;;2.72;;
23561;SDS011;11959;49.418;8.728;2023-07-20T04:07:44;4.78;;;2.42;;
23561;SDS011;11959;49.418;8.728;2023-07-20T04:10:10;5.00;;;2.30;;
23561;SDS011;11959;49.418;8.728;2023-07-20T04:12:35;4.25;;;2.15;;
23561;SDS011;11959;49.418;8.728;2023-07-20T04:15:01;4.82;;;2.20;;
23561;SDS011;11959;49.418;8.728;2023-07-20T04:17:29;4.80;;;2.30;;
23561;SDS011;11959;49.418;8.728;2023-07-20T04:19:54;4.95;;;2.17;;
23561;SDS011;11959;49.418;8.728;2023-07-20T04:22:20;3.15;;;2.13;;
23561;SDS011;11959;49.418;8.728;2023-07-20T04:24:46;3.17;;;2.17;;
23561;SDS011;11959;49.418;8.728;2023-07-20T04:27:12;4.30;;;1.95;;
23561;SDS011;11959;49.418;8.728;2023-07-20T04:29:37;3.47;;;2.33;;
23561;SDS011;11959;49.418;8.728;2023-07-20T04:32:03;5.30;;;2.60;;
23561;SDS011;11959;49.418;8.728;2023-07-20T04:34:29;3.95;;;2.40;;
23561;SDS011;11959;49.418;8.728;2023-07-20T04:36:55;3.85;;;2.40;;
23561;SDS011;11959;49.418;8.728;2023-07-20T04:39:20;3.92;;;2.50;;
23561;SDS011;11959;49.418;8.728;2023-07-20T04:41:46;5.25;;;2.70;;
23561;SDS011;11959;49.418;8.728;2023-07-20T04:44:13;5.70;;;2.40;;
23561;SDS011;11959;49.418;8.728;2023-07-20T04:46:39;4.60;;;2.53;;
23561;SDS011;11959;49.418;8.728;2023-07-20T04:49:05;4.78;;;2.28;;
23561;SDS011;11959;49.418;8.728;2023-07-20T04:51:31;4.40;;;2.33;;
23561;SDS011;11959;49.418;8.728;2023-07-20T04:53:57;5.53;;;2.53;;
23561;SDS011;11959;49.418;8.728;2023-07-20T04:56:23;5.65;;;2.42;;
23561;SDS011;11959;49.418;8.728;2023-07-20T04:58:49;3.85;;;2.47;;
23561;SDS011;11959;49.418;8.728;2023-07-20T05:01:15;4.57;;;2.75;;
23561;SDS011;11959;49.418;8.728;2023-07-20T05:03:41;4.40;;;2.30;;
23561;SDS011;11959;49.418;8.728;2023-07-20T05:06:07;3.70;;;2.22;;
23561;SDS011;11959;49.418;8.728;2023-07-20T05:08:32;4.53;;;2.47;;
23561;SDS011;11959;49.418;8.728;2023-07-20T05:10:59;4.53;;;2.50;;
23561;SDS011;11959;49.418;8.728;2023-07-20T05:13:25;4.30;;;2.40;;
23561;SDS011;11959;49.418;8.728;2023-07-20T05:15:51;3.85;;;2.22;;
23561;SDS011;11959;49.418;8.728;2023-07-20T05:18:18;4.20;;;2.25;;
23561;SDS011;11959;49.418;8.728;2023-07-20T05:20:48;5.43;;;2.72;;
23561;SDS011;11959;49.418;8.728;2023-07-20T05:23:14;5.13;;;2.40;;
23561;SDS011;11959;49.418;8.728;2023-07-20T05:25:41;3.70;;;2.17;;
23561;SDS011;11959;49.418;8.728;2023-07-20T05:28:06;4.60;;;2.53;;
23561;SDS011;11959;49.418;8.728;2023-07-20T05:30:32;4.35;;;2.45;;
23561;SDS011;11959;49.418;8.728;2023-07-20T05:32:58;4.43;;;2.20;;
23561;SDS011;11959;49.418;8.728;2023-07-20T05:35:23;3.15;;;2.00;;
23561;SDS011;11959;49.418;8.728;2023-07-20T05:37:50;4.60;;;2.25;;
23561;SDS011;11959;49.418;8.728;2023-07-20T05:40:16;4.07;;;2.50;;
23561;SDS011;11959;49.418;8.728;2023-07-20T05:42:46;4.13;;;2.50;;
23561;SDS011;11959;49.418;8.728;2023-07-20T05:45:13;5.05;;;2.75;;
23561;SDS011;11959;49.418;8.728;2023-07-20T05:47:39;5.43;;;2.42;;
23561;SDS011;11959;49.418;8.728;2023-07-20T05:50:06;5.38;;;2.42;;
23561;SDS011;11959;49.418;8.728;2023-07-20T05:52:32;5.63;;;2.42;;
23561;SDS011;11959;49.418;8.728;2023-07-20T05:54:58;3.15;;;2.30;;
23561;SDS011;11959;49.418;8.728;2023-07-20T05:57:23;3.63;;;2.50;;
23561;SDS011;11959;49.418;8.728;2023-07-20T05:59:49;4.13;;;2.50;;
23561;SDS011;11959;49.418;8.728;2023-07-20T06:02:15;4.65;;;2.35;;
23561;SDS011;11959;49.418;8.728;2023-07-20T06:04:41;5.63;;;2.38;;
23561;SDS011;11959;49.418;8.728;2023-07-20T06:07:07;5.47;;;2.42;;
23561;SDS011;11959;49.418;8.728;2023-07-20T06:09:33;3.25;;;2.30;;
23561;SDS011;11959;49.418;8.728;2023-07-20T06:11:59;3.67;;;2.33;;
23561;SDS011;11959;49.418;8.728;2023-07-20T06:14:25;3.35;;;2.38;;
23561;SDS011;11959;49.418;8.728;2023-07-20T06:16:50;3.72;;;2.25;;
23561;SDS011;11959;49.418;8.728;2023-07-20T06:19:16;3.45;;;2.17;;
23561;SDS011;11959;49.418;8.728;2023-07-20T06:21:42;3.85;;;2.20;;
23561;SDS011;11959;49.418;8.728;2023-07-20T06:24:08;3.47;;;2.22;;
23561;SDS011;11959;49.418;8.728;2023-07-20T06:26:34;5.93;;;1.90;;
23561;SDS011;11959;49.418;8.728;2023-07-20T06:29:07;4.15;;;2.20;;
23561;SDS011;11959;49.418;8.728;2023-07-20T06:31:34;5.43;;;2.60;;
23561;SDS011;11959;49.418;8.728;2023-07-20T06:34:01;3.05;;;1.77;;
23561;SDS011;11959;49.418;8.728;2023-07-20T06:36:27;4.07;;;2.03;;
23561;SDS011;11959;49.418;8.728;2023-07-20T06:38:53;2.63;;;1.90;;
23561;SDS011;11959;49.418;8.728;2023-07-20T06:41:19;4.82;;;2.08;;
23561;SDS011;11959;49.418;8.728;2023-07-20T06:43:45;4.53;;;2.42;;
23561;SDS011;11959;49.418;8.728;2023-07-20T06:46:11;4.78;;;2.17;;
23561;SDS011;11959;49.418;8.728;2023-07-20T06:48:36;3.17;;;1.90;;
23561;SDS011;11959;49.418;8.728;2023-07-20T06:51:02;3.53;;;2.05;;
23561;SDS011;11959;49.418;8.728;2023-07-20T06:53:28;6.00;;;2.15;;
23561;SDS011;11959;49.418;8.728;2023-07-20T06:55:54;3.83;;;2.20;;
23561;SDS011;11959;49.418;8.728;2023-07-20T06:58:22;3.10;;;1.90;;
23561;SDS011;11959;49.418;8.728;2023-07-20T07:00:48;3.17;;;2.00;;
23561;SDS011;11959;49.418;8.728;2023-07-20T07:03:14;3.95;;;2.20;;
23561;SDS011;11959;49.418;8.728;2023-07-20T07:05:40;5.20;;;1.80;;
23561;SDS011;11959;49.418;8.728;2023-07-20T07:08:05;5.05;;;2.00;;
23561;SDS011;11959;49.418;8.728;2023-07-20T07:10:31;6.63;;;2.10;;
23561;SDS011;11959;49.418;8.728;2023-07-20T07:12:58;5.40;;;2.22;;
23561;SDS011;11959;49.418;8.728;2023-07-20T07:15:25;3.55;;;1.95;;
23561;SDS011;11959;49.418;8.728;2023-07-20T07:17:51;5.18;;;2.20;;
23561;SDS011;11959;49.418;8.728;2023-07-20T07:20:17;5.85;;;1.90;;
23561;SDS011;11959;49.418;8.728;2023-07-20T07:22:42;6.47;;;2.30;;
23561;SDS011;11959;49.418;8.728;2023-07-20T07:25:09;2.30;;;1.60;;
23561;SDS011;11959;49.418;8.728;2023-07-20T07:27:35;3.97;;;2.13;;
23561;SDS011;11959;49.418;8.728;2023-07-20T07:30:01;3.42;;;1.95;;
23561;SDS011;11959;49.418;8.728;2023-07-20T07:32:27;3.95;;;1.88;;
23561;SDS011;11959;49.418;8.728;2023-07-20T07:34:53;6.18;;;2.20;;
23561;SDS011;11959;49.418;8.728;2023-07-20T07:37:18;5.05;;;1.92;;
23561;SDS011;11959;49.418;8.728;2023-07-20T07:39:45;3.85;;;2.10;;
23561;SDS011;11959;49.418;8.728;2023-07-20T07:42:11;3.33;;;1.52;;
23561;SDS011;11959;49.418;8.728;2023-07-20T07:44:37;3.03;;;1.80;;
23561;SDS011;11959;49.418;8.728;2023-07-20T07:47:03;3.45;;;1.67;;
23561;SDS011;11959;49.418;8.728;2023-07-20T07:49:29;4.15;;;1.90;;
23561;SDS011;11959;49.418;8.728;2023-07-20T07:51:54;2.85;;;1.75;;
23561;SDS011;11959;49.418;8.728;2023-07-20T07:54:20;4.15;;;1.88;;
23561;SDS011;11959;49.418;8.728;2023-07-20T07:56:46;3.90;;;1.90;;
23561;SDS011;11959;49.418;8.728;2023-07-20T07:59:11;2.63;;;1.85;;
23561;SDS011;11959;49.418;8.728;2023-07-20T08:01:37;3.17;;;1.67;;
23561;SDS011;11959;49.418;8.728;2023-07-20T08:04:03;5.22;;;1.83;;
23561;SDS011;11959;49.418;8.728;2023-07-20T08:06:28;3.45;;;1.67;;
23561;SDS011;11959;49.418;8.728;2023-07-20T08:08:54;3.15;;;1.70;;
23561;SDS011;11959;49.418;8.728;2023-07-20T08:11:20;4.32;;;2.05;;
23561;SDS011;11959;49.418;8.728;2023-07-20T08:13:46;4.15;;;1.70;;
23561;SDS011;11959;49.418;8.728;2023-07-20T08:16:11;3.28;;;1.90;;
23561;SDS011;11959;49.418;8.728;2023-07-20T08:18:37;4.00;;;1.60;;
23561;SDS011;11959;49.418;8.728;2023-07-20T08:21:03;3.63;;;2.08;;
23561;SDS011;11959;49.418;8.728;2023-07-20T08:23:28;2.97;;;1.45;;
23561;SDS011;11959;49.418;8.728;2023-07-20T08:25:54;3.85;;;2.10;;
23561;SDS011;11959;49.418;8.728;2023-07-20T08:28:20;4.85;;;1.90;;
23561;SDS011;11959;49.418;8.728;2023-07-20T08:30:47;3.05;;;2.03;;
23561;SDS011;11959;49.418;8.728;2023-07-20T08:33:13;4.10;;;2.13;;
23561;SDS011;11959;49.418;8.728;2023-07-20T08:35:40;3.03;;;1.73;;
23561;SDS011;11959;49.418;8.728;2023-07-20T08:38:06;2.92;;;1.80;;
23561;SDS011;11959;49.418;8.728;2023-07-20T08:40:33;3.03;;;1.60;;
23561;SDS011;11959;49.418;8.728;2023-07-20T08:43:03;2.55;;;1.60;;
23561;SDS011;11959;49.418;8.728;2023-07-20T08:45:29;3.67;;;1.48;;
23561;SDS011;11959;49.418;8.728;2023-07-20T08:47:58;2.30;;;1.30;;
23561;SDS011;11959;49.418;8.728;2023-07-20T08:50:25;2.35;;;1.20;;
23561;SDS011;11959;49.418;8.728;2023-07-20T08:52:53;2.70;;;1.70;;
23561;SDS011;11959;49.418;8.728;2023-07-20T08:55:22;2.67;;;1.23;;
23561;SDS011;11959;49.418;8.728;2023-07-20T08:57:55;3.03;;;1.50;;
23561;SDS011;11959;49.418;8.728;2023-07-20T09:00:23;3.10;;;1.50;;
23561;SDS011;11959;49.418;8.728;2023-07-20T09:02:50;3.63;;;1.70;;
23561;SDS011;11959;49.418;8.728;2023-07-20T09:05:17;3.80;;;1.90;;
23561;SDS011;11959;49.418;8.728;2023-07-20T09:07:44;2.58;;;1.25;;
23561;SDS011;11959;49.418;8.728;2023-07-20T09:10:10;3.85;;;1.83;;
23561;SDS011;11959;49.418;8.728;2023-07-20T09:12:38;2.88;;;1.45;;
23561;SDS011;11959;49.418;8.728;2023-07-20T09:15:05;4.50;;;1.80;;
23561;SDS011;11959;49.418;8.728;2023-07-20T09:17:31;4.53;;;1.80;;
23561;SDS011;11959;49.418;8.728;2023-07-20T09:19:57;4.60;;;1.80;;
23561;SDS011;11959;49.418;8.728;2023-07-20T09:22:29;4.47;;;1.90;;
23561;SDS011;11959;49.418;8.728;2023-07-20T09:24:56;4.22;;;1.80;;
23561;SDS011;11959;49.418;8.728;2023-07-20T09:27:22;3.25;;;1.42;;
23561;SDS011;11959;49.418;8.728;2023-07-20T09:30:04;2.47;;;1.52;;
23561;SDS011;11959;49.418;8.728;2023-07-20T09:32:41;3.72;;;1.90;;
23561;SDS011;11959;49.418;8.728;2023-07-20T09:35:14;3.00;;;1.65;;
23561;SDS011;11959;49.418;8.728;2023-07-20T09:37:51;4.35;;;1.85;;
23561;SDS011;11959;49.418;8.728;2023-07-20T09:40:20;5.20;;;1.65;;
23561;SDS011;11959;49.418;8.728;2023-07-20T09:42:46;2.45;;;1.80;;
23561;SDS011;11959;49.418;8.728;2023-07-20T09:45:12;3.72;;;1.77;;
23561;SDS011;11959;49.418;8.728;2023-07-20T09:47:38;3.85;;;1.50;;
23561;SDS011;11959;49.418;8.728;2023-07-20T09:50:05;2.80;;;1.60;;
23561;SDS011;11959;49.418;8.728;2023-07-20T09:55:05;3.75;;;1.42;;
23561;SDS011;11959;49.418;8.728;2023-07-20T09:57:33;3.85;;;1.65;;
23561;SDS011;11959;49.418;8.728;2023-07-20T10:00:01;5.00;;;1.90;;
23561;SDS011;11959;49.418;8.728;2023-07-20T10:02:41;5.45;;;1.92;;
23561;SDS011;11959;49.418;8.728;2023-07-20T10:05:14;3.55;;;1.60;;
23561;SDS011;11959;49.418;8.728;2023-07-20T10:07:43;4.07;;;1.63;;
23561;SDS011;11959;49.418;8.728;2023-07-20T10:10:13;3.03;;;1.60;;
23561;SDS011;11959;49.418;8.728;2023-07-20T10:12:47;5.18;;;1.60;;
23561;SDS011;11959;49.418;8.728;2023-07-20T10:18:09;3.10;;;1.70;;
23561;SDS011;11959;49.418;8.728;2023-07-20T10:20:39;4.00;;;1.92;;
23561;SDS011;11959;49.418;8.728;2023-07-20T10:23:08;4.07;;;1.60;;
23561;SDS011;11959;49.418;8.728;2023-07-20T10:25:35;4.30;;;1.60;;
23561;SDS011;11959;49.418;8.728;2023-07-20T10:28:04;3.00;;;1.80;;
23561;SDS011;11959;49.418;8.728;2023-07-20T10:30:31;2.53;;;1.83;;
23561;SDS011;11959;49.418;8.728;2023-07-20T10:33:04;2.80;;;1.50;;
23561;SDS011;11959;49.418;8.728;2023-07-20T10:35:31;3.33;;;1.77;;
23561;SDS011;11959;49.418;8.728;2023-07-20T10:38:15;2.97;;;1.70;;
23561;SDS011;11959;49.418;8.728;2023-07-20T10:40:41;2.45;;;1.90;;
23561;SDS011;11959;49.418;8.728;2023-07-20T10:43:07;2.58;;;1.42;;
23561;SDS011;11959;49.418;8.728;2023-07-20T10:50:44;3.25;;;1.75;;
23561;SDS011;11959;49.418;8.728;2023-07-20T10:53:11;4.30;;;1.75;;
23561;SDS011;11959;49.418;8.728;2023-07-20T10:55:39;3.30;;;1.60;;
23561;SDS011;11959;49.418;8.728;2023-07-20T10:58:06;2.53;;;1.40;;
23561;SDS011;11959;49.418;8.728;2023-07-20T11:00:33;2.85;;;1.70;;
23561;SDS011;11959;49.418;8.728;2023-07-20T11:02:59;2.53;;;1.50;;
23561;SDS011;11959;49.418;8.728;2023-07-20T11:05:34;2.83;;;1.20;;
23561;SDS011;11959;49.418;8.728;2023-07-20T11:08:37;2.72;;;1.50;;
23561;SDS011;11959;49.418;8.728;2023-07-20T11:14:04;2.30;;;1.60;;
23561;SDS011;11959;49.418;8.728;2023-07-20T11:19:00;4.50;;;1.83;;
23561;SDS011;11959;49.418;8.728;2023-07-20T11:21:26;2.80;;;1.40;;
23561;SDS011;11959;49.418;8.728;2023-07-20T11:23:52;2.75;;;1.55;;
23561;SDS011;11959;49.418;8.728;2023-07-20T11:26:18;2.08;;;1.50;;
23561;SDS011;11959;49.418;8.728;2023-07-20T11:28:53;2.95;;;1.60;;
23561;SDS011;11959;49.418;8.728;2023-07-20T11:31:19;5.05;;;1.80;;
23561;SDS011;11959;49.418;8.728;2023-07-20T11:33:44;5.13;;;1.80;;
23561;SDS011;11959;49.418;8.728;2023-07-20T11:36:11;4.00;;;1.60;;
23561;SDS011;11959;49.418;8.728;2023-07-20T11:38:37;2.88;;;1.60;;
23561;SDS011;11959;49.418;8.728;2023-07-20T11:41:06;3.63;;;1.65;;
23561;SDS011;11959;49.418;8.728;2023-07-20T11:43:32;2.53;;;1.40;;
23561;SDS011;11959;49.418;8.728;2023-07-20T11:45:58;3.35;;;1.70;;
23561;SDS011;11959;49.418;8.728;2023-07-20T11:48:25;4.53;;;1.67;;
23561;SDS011;11959;49.418;8.728;2023-07-20T11:50:51;2.90;;;1.63;;
23561;SDS011;11959;49.418;8.728;2023-07-20T11:53:16;3.47;;;1.52;;
23561;SDS011;11959;49.418;8.728;2023-07-20T11:55:42;2.53;;;1.30;;
23561;SDS011;11959;49.418;8.728;2023-07-20T11:58:09;2.90;;;1.40;;
23561;SDS011;11959;49.418;8.728;2023-07-20T12:00:36;2.50;;;1.30;;
23561;SDS011;11959;49.418;8.728;2023-07-20T12:03:04;2.65;;;1.80;;
23561;SDS011;11959;49.418;8.728;2023-07-20T12:05:35;4.18;;;1.60;;
23561;SDS011;11959;49.418;8.728;2023-07-20T12:08:05;3.15;;;1.58;;
23561;SDS011;11959;49.418;8.728;2023-07-20T12:10:30;3.55;;;1.70;;
23561;SDS011;11959;49.418;8.728;2023-07-20T12:13:02;4.28;;;1.60;;
23561;SDS011;11959;49.418;8.728;2023-07-20T12:15:32;3.58;;;1.60;;
23561;SDS011;11959;49.418;8.728;2023-07-20T12:17:58;2.70;;;1.67;;
23561;SDS011;11959;49.418;8.728;2023-07-20T12:20:26;4.10;;;1.52;;
23561;SDS011;11959;49.418;8.728;2023-07-20T12:23:03;2.72;;;1.45;;
23561;SDS011;11959;49.418;8.728;2023-07-20T12:28:05;4.15;;;2.00;;
23561;SDS011;11959;49.418;8.728;2023-07-20T12:30:35;1.67;;;1.40;;
23561;SDS011;11959;49.418;8.728;2023-07-20T12:33:04;2.63;;;1.27;;
23561;SDS011;11959;49.418;8.728;2023-07-20T12:35:30;3.47;;;1.48;;
23561;SDS011;11959;49.418;8.728;2023-07-20T12:37:56;3.10;;;1.60;;
23561;SDS011;11959;49.418;8.728;2023-07-20T12:40:22;2.30;;;1.60;;
23561;SDS011;11959;49.418;8.728;2023-07-20T12:42:48;2.67;;;1.33;;
23561;SDS011;11959;49.418;8.728;2023-07-20T12:45:14;1.98;;;1.40;;
23561;SDS011;11959;49.418;8.728;2023-07-20T12:47:40;1.90;;;1.30;;
23561;SDS011;11959;49.418;8.728;2023-07-20T12:50:08;1.88;;;1.05;;
23561;SDS011;11959;49.418;8.728;2023-07-20T12:52:36;2.13;;;1.30;;
23561;SDS011;11959;49.418;8.728;2023-07-20T12:55:03;3.63;;;1.63;;
23561;SDS011;11959;49.418;8.728;2023-07-20T12:57:29;2.70;;;1.42;;
23561;SDS011;11959;49.418;8.728;2023-07-20T12:59:55;4.05;;;1.60;;
23561;SDS011;11959;49.418;8.728;2023-07-20T13:02:21;4.20;;;1.55;;
23561;SDS011;11959;49.418;8.728;2023-07-20T13:04:47;4.03;;;1.45;;
23561;SDS011;11959;49.418;8.728;2023-07-20T13:07:12;3.47;;;1.52;;
23561;SDS011;11959;49.418;8.728;2023-07-20T13:09:38;3.90;;;1.50;;
23561;SDS011;11959;49.418;8.728;2023-07-20T13:12:04;3.20;;;1.52;;
23561;SDS011;11959;49.418;8.728;2023-07-20T13:14:30;3.22;;;1.45;;
23561;SDS011;11959;49.418;8.728;2023-07-20T13:16:56;2.70;;;1.35;;
23561;SDS011;11959;49.418;8.728;2023-07-20T13:19:22;1.75;;;1.30;;
23561;SDS011;11959;49.418;8.728;2023-07-20T13:21:47;2.03;;;1.38;;
23561;SDS011;11959;49.418;8.728;2023-07-20T13:24:13;2.55;;;1.58;;
23561;SDS011;11959;49.418;8.728;2023-07-20T13:26:39;2.80;;;1.55;;
23561;SDS011;11959;49.418;8.728;2023-07-20T13:29:04;3.35;;;1.40;;
23561;SDS011;11959;49.418;8.728;2023-07-20T13:31:30;3.65;;;1.38;;
23561;SDS011;11959;49.418;8.728;2023-07-20T13:33:56;3.28;;;1.50;;
23561;SDS011;11959;49.418;8.728;2023-07-20T13:36:23;2.88;;;1.40;;
23561;SDS011;11959;49.418;8.728;2023-07-20T13:38:50;3.95;;;1.63;;
23561;SDS011;11959;49.418;8.728;2023-07-20T13:41:16;2.00;;;1.35;;
23561;SDS011;11959;49.418;8.728;2023-07-20T13:43:42;1.77;;;1.40;;
23561;SDS011;11959;49.418;8.728;2023-07-20T13:46:08;2.33;;;1.20;;
23561;SDS011;11959;49.418;8.728;2023-07-20T13:48:34;3.35;;;1.30;;
23561;SDS011;11959;49.418;8.728;2023-07-20T13:50:59;2.83;;;1.40;;
23561;SDS011;11959;49.418;8.728;2023-07-20T13:53:25;1.95;;;1.30;;
23561;SDS011;11959;49.418;8.728;2023-07-20T13:55:52;3.53;;;1.48;;
23561;SDS011;11959;49.418;8.728;2023-07-20T13:58:18;2.00;;;1.25;;
23561;SDS011;11959;49.418;8.728;2023-07-20T14:00:44;2.03;;;1.10;;
23561;SDS011;11959;49.418;8.728;2023-07-20T14:03:10;3.92;;;1.38;;
23561;SDS011;11959;49.418;8.728;2023-07-20T14:05:35;3.15;;;1.30;;
23561;SDS011;11959;49.418;8.728;2023-07-20T14:08:01;1.50;;;0.90;;
23561;SDS011;11959;49.418;8.728;2023-07-20T14:10:26;2.47;;;1.52;;
23561;SDS011;11959;49.418;8.728;2023-07-20T14:12:52;2.72;;;1.48;;
23561;SDS011;11959;49.418;8.728;2023-07-20T14:15:18;2.45;;;1.40;;
23561;SDS011;11959;49.418;8.728;2023-07-20T14:17:44;3.00;;;1.40;;
23561;SDS011;11959;49.418;8.728;2023-07-20T14:20:10;1.95;;;1.38;;
23561;SDS011;11959;49.418;8.728;2023-07-20T14:22:36;2.08;;;1.50;;
23561;SDS011;11959;49.418;8.728;2023-07-20T14:25:02;1.95;;;1.33;;
23561;SDS011;11959;49.418;8.728;2023-07-20T14:27:28;2.63;;;1.45;;
23561;SDS011;11959;49.418;8.728;2023-07-20T14:29:53;2.65;;;1.50;;
23561;SDS011;11959;49.418;8.728;2023-07-20T14:32:20;3.33;;;1.40;;
23561;SDS011;11959;49.418;8.728;2023-07-20T14:34:46;3.85;;;1.50;;
23561;SDS011;11959;49.418;8.728;2023-07-20T14:37:11;2.55;;;1.15;;
23561;SDS011;11959;49.418;8.728;2023-07-20T14:39:38;3.67;;;1.45;;
23561;SDS011;11959;49.418;8.728;2023-07-20T14:42:04;3.58;;;1.45;;
23561;SDS011;11959;49.418;8.728;2023-07-20T14:44:29;2.28;;;1.33;;
23561;SDS011;11959;49.418;8.728;2023-07-20T14:46:55;2.17;;;1.63;;
23561;SDS011;11959;49.418;8.728;2023-07-20T14:49:21;2.05;;;1.15;;
23561;SDS011;11959;49.418;8.728;2023-07-20T14:51:46;2.08;;;1.40;;
23561;SDS011;11959;49.418;8.728;2023-07-20T14:54:13;2.65;;;1.42;;
23561;SDS011;11959;49.418;8.728;2023-07-20T14:56:39;2.55;;;1.42;;
23561;SDS011;11959;49.418;8.728;2023-07-20T14:59:13;2.65;;;1.23;;
23561;SDS011;11959;49.418;8.728;2023-07-20T15:01:38;2.53;;;1.50;;
23561;SDS011;11959;49.418;8.728;2023-07-20T15:04:04;2.70;;;1.25;;
23561;SDS011;11959;49.418;8.728;2023-07-20T15:06:30;2.00;;;1.33;;
23561;SDS011;11959;49.418;8.728;2023-07-20T15:08:57;4.57;;;1.90;;
23561;SDS011;11959;49.418;8.728;2023-07-20T15:11:22;3.33;;;1.48;;